Time;durP1;ratioP1;P1;durP2;ratioP2;P2;SDS_P1;SDS_P2;PMS_P1;PMS_P2;Temp;Humidity;BMP_temperature;BMP_pressure;BME280_temperature;BME280_humidity;BME280_pressure;Samples;Min_cycle;Max_cycle;Signal;HPM_P1;HPM_P2
2022/09/07 00:02:43;;;;;;;3.97;1.48;;;;;;;;;;8294116;28;20065;-57
2022/09/07 00:06:43;;;;;;;3.73;1.53;;;;;;;;;;8294702;28;20037;-57
2022/09/07 00:11:10;;;;;;;4.82;1.77;;;;;;;;;;8293986;28;20986;-57
2022/09/07 00:15:11;;;;;;;4.28;1.80;;;;;;;;;;8291304;28;20127;-57
2022/09/07 00:19:12;;;;;;;4.07;2.10;;;;;;;;;;8294331;28;20599;-57
2022/09/07 00:23:12;;;;;;;3.78;1.85;;;;;;;;;;8294317;28;20018;-56
2022/09/07 00:27:12;;;;;;;3.78;1.80;;;;;;;;;;8292104;28;20084;-57
2022/09/07 00:31:20;;;;;;;7.05;1.75;;;;;;;;;;8292463;28;20044;-59
2022/09/07 00:35:20;;;;;;;3.22;1.75;;;;;;;;;;8297860;28;20032;-57
2022/09/07 00:39:20;;;;;;;3.67;1.70;;;;;;;;;;8292660;28;20136;-57
2022/09/07 00:43:31;;;;;;;2.70;1.40;;;;;;;;;;8294298;28;20336;-57
2022/09/07 00:47:55;;;;;;;4.80;1.65;;;;;;;;;;8291005;28;20029;-57
2022/09/07 00:51:57;;;;;;;6.07;1.60;;;;;;;;;;8285406;28;20037;-57
2022/09/07 00:55:58;;;;;;;3.10;1.53;;;;;;;;;;8294944;28;20021;-58
2022/09/07 00:59:58;;;;;;;2.80;1.50;;;;;;;;;;8298689;28;20065;-57
2022/09/07 01:03:59;;;;;;;2.15;1.45;;;;;;;;;;8300250;28;20430;-58
2022/09/07 01:08:00;;;;;;;4.55;1.70;;;;;;;;;;8295809;28;20465;-57
2022/09/07 01:12:01;;;;;;;3.55;1.50;;;;;;;;;;8299672;28;20025;-57
2022/09/07 01:16:13;;;;;;;7.13;1.95;;;;;;;;;;8301368;28;20492;-57
2022/09/07 01:20:19;;;;;;;5.15;1.98;;;;;;;;;;8298592;28;20453;-56
2022/09/07 01:24:23;;;;;;;5.40;2.70;;;;;;;;;;8296118;28;20146;-64
2022/09/07 01:28:25;;;;;;;11.73;2.88;;;;;;;;;;8296227;28;20349;-59
2022/09/07 01:32:35;;;;;;;12.68;2.42;;;;;;;;;;8293829;28;20145;-59
2022/09/07 01:36:35;;;;;;;10.13;2.45;;;;;;;;;;8298416;28;20022;-58
2022/09/07 01:40:43;;;;;;;5.53;2.13;;;;;;;;;;8298967;28;20024;-57
2022/09/07 01:44:44;;;;;;;8.30;2.20;;;;;;;;;;8296962;28;20026;-57
2022/09/07 01:48:45;;;;;;;7.47;1.80;;;;;;;;;;8296927;28;20041;-57
2022/09/07 01:52:51;;;;;;;5.82;2.00;;;;;;;;;;8296236;28;20445;-57
2022/09/07 01:56:55;;;;;;;6.53;2.70;;;;;;;;;;8294323;28;20143;-57
2022/09/07 02:00:59;;;;;;;6.03;2.88;;;;;;;;;;8296510;28;20042;-57
2022/09/07 02:05:03;;;;;;;5.32;2.20;;;;;;;;;;8299670;28;20059;-57
2022/09/07 02:09:05;;;;;;;7.25;2.20;;;;;;;;;;8296787;28;20038;-57
2022/09/07 02:13:05;;;;;;;5.88;1.80;;;;;;;;;;8297964;28;20444;-57
2022/09/07 02:17:17;;;;;;;4.90;2.10;;;;;;;;;;8299498;28;20049;-57
2022/09/07 02:21:19;;;;;;;156.30;7.68;;;;;;;;;;8294429;28;20033;-57
2022/09/07 02:25:21;;;;;;;173.35;7.93;;;;;;;;;;8299015;28;20113;-57
2022/09/07 02:29:21;;;;;;;80.10;5.78;;;;;;;;;;8296936;28;20071;-58
2022/09/07 02:33:22;;;;;;;385.50;13.40;;;;;;;;;;8296544;28;20984;-57
2022/09/07 02:37:22;;;;;;;40.50;3.90;;;;;;;;;;8298418;28;21263;-59
2022/09/07 02:41:48;;;;;;;6.65;2.67;;;;;;;;;;8296351;28;20361;-57
2022/09/07 02:46:08;;;;;;;6.65;2.60;;;;;;;;;;8292406;28;20072;-58
2022/09/07 02:50:08;;;;;;;5.75;2.38;;;;;;;;;;8296489;28;20108;-58
2022/09/07 02:54:31;;;;;;;28.30;3.50;;;;;;;;;;8292274;28;20039;-58
2022/09/07 02:58:34;;;;;;;9.85;3.15;;;;;;;;;;8294516;28;20033;-57
2022/09/07 03:02:37;;;;;;;8.75;3.40;;;;;;;;;;8293732;28;20072;-57
2022/09/07 03:06:43;;;;;;;4.28;2.42;;;;;;;;;;8292791;28;20025;-57
2022/09/07 03:10:44;;;;;;;10.32;3.03;;;;;;;;;;8294742;28;20030;-57
2022/09/07 03:14:44;;;;;;;6.13;3.33;;;;;;;;;;8296785;28;20371;-59
2022/09/07 03:18:44;;;;;;;8.52;3.55;;;;;;;;;;8297146;28;20025;-58
2022/09/07 03:22:45;;;;;;;7.20;3.72;;;;;;;;;;8292476;28;20084;-58
2022/09/07 03:26:47;;;;;;;8.57;3.60;;;;;;;;;;8292662;28;20486;-58
2022/09/07 03:30:47;;;;;;;5.70;3.20;;;;;;;;;;8292566;28;20122;-58
2022/09/07 03:34:48;;;;;;;6.75;3.47;;;;;;;;;;8296882;28;20021;-59
2022/09/07 03:38:48;;;;;;;6.05;3.17;;;;;;;;;;8291170;28;20820;-58
2022/09/07 03:42:49;;;;;;;6.78;2.65;;;;;;;;;;8293349;28;20033;-57
2022/09/07 03:46:49;;;;;;;3.42;2.30;;;;;;;;;;8289483;28;20092;-64
2022/09/07 03:51:03;;;;;;;3.93;2.13;;;;;;;;;;8290334;28;20117;-57
2022/09/07 03:55:03;;;;;;;5.07;2.53;;;;;;;;;;8291504;28;20032;-57
2022/09/07 03:59:04;;;;;;;3.42;2.15;;;;;;;;;;8293687;28;20025;-57
2022/09/07 04:03:04;;;;;;;3.08;2.47;;;;;;;;;;8292491;28;20117;-58
2022/09/07 04:07:05;;;;;;;4.20;2.33;;;;;;;;;;8292442;28;20018;-57
2022/09/07 04:11:06;;;;;;;3.97;2.25;;;;;;;;;;8292691;28;20276;-57
2022/09/07 04:15:06;;;;;;;5.53;2.20;;;;;;;;;;8295826;28;20028;-59
2022/09/07 04:19:06;;;;;;;4.23;1.83;;;;;;;;;;8287910;28;20030;-57
2022/09/07 04:23:07;;;;;;;2.55;1.70;;;;;;;;;;8296275;28;20049;-57
2022/09/07 04:27:07;;;;;;;4.07;1.70;;;;;;;;;;8290304;28;20028;-59
2022/09/07 04:31:07;;;;;;;3.78;1.80;;;;;;;;;;8289844;28;20091;-58
2022/09/07 04:35:08;;;;;;;2.40;1.65;;;;;;;;;;8292431;28;20029;-57
2022/09/07 04:39:08;;;;;;;2.80;1.90;;;;;;;;;;8291639;28;20025;-58
2022/09/07 04:43:11;;;;;;;3.53;1.80;;;;;;;;;;8288354;28;20239;-57
2022/09/07 04:47:12;;;;;;;3.30;1.70;;;;;;;;;;8287577;28;20040;-59
2022/09/07 04:51:12;;;;;;;2.85;1.75;;;;;;;;;;8290604;28;20843;-58
2022/09/07 04:55:12;;;;;;;2.72;1.70;;;;;;;;;;8291547;28;20133;-58
2022/09/07 04:59:12;;;;;;;2.50;1.63;;;;;;;;;;8292881;28;20509;-57
2022/09/07 05:03:12;;;;;;;1.90;1.60;;;;;;;;;;8289070;28;20090;-58
2022/09/07 05:07:13;;;;;;;3.30;1.73;;;;;;;;;;8291899;28;20264;-58
2022/09/07 05:11:14;;;;;;;3.70;1.65;;;;;;;;;;8291951;28;20032;-57
2022/09/07 05:15:14;;;;;;;4.60;1.50;;;;;;;;;;8289459;28;20021;-57
2022/09/07 05:19:14;;;;;;;3.38;1.60;;;;;;;;;;8291787;28;20065;-59
2022/09/07 05:23:15;;;;;;;4.20;1.77;;;;;;;;;;8293338;28;20013;-58
2022/09/07 05:27:15;;;;;;;2.65;1.30;;;;;;;;;;8292578;28;20021;-57
2022/09/07 05:31:17;;;;;;;2.23;1.43;;;;;;;;;;8290272;28;20048;-61
2022/09/07 05:35:17;;;;;;;1.95;1.10;;;;;;;;;;8291711;28;20518;-57
2022/09/07 05:39:19;;;;;;;4.05;1.40;;;;;;;;;;8286821;28;20342;-58
2022/09/07 05:43:20;;;;;;;5.72;1.38;;;;;;;;;;8295422;28;20071;-58
2022/09/07 05:47:21;;;;;;;2.97;1.15;;;;;;;;;;8294433;28;20033;-58
2022/09/07 05:51:21;;;;;;;5.03;1.20;;;;;;;;;;8295772;28;20084;-57
2022/09/07 05:55:21;;;;;;;2.55;1.17;;;;;;;;;;8297919;28;20022;-58
2022/09/07 05:59:21;;;;;;;5.13;1.50;;;;;;;;;;8296297;28;20056;-58
2022/09/07 06:03:23;;;;;;;5.47;1.50;;;;;;;;;;8295073;28;20029;-58
2022/09/07 06:07:23;;;;;;;2.38;1.33;;;;;;;;;;8294828;28;20132;-58
2022/09/07 06:11:25;;;;;;;3.93;1.30;;;;;;;;;;8292535;28;20025;-58
2022/09/07 06:15:25;;;;;;;7.18;1.27;;;;;;;;;;8297250;28;20271;-59
2022/09/07 06:19:25;;;;;;;3.40;1.40;;;;;;;;;;8294896;28;20055;-58
2022/09/07 06:23:25;;;;;;;2.33;1.15;;;;;;;;;;8294996;28;20572;-58
2022/09/07 06:27:26;;;;;;;5.22;1.38;;;;;;;;;;8293889;28;20021;-58
2022/09/07 06:31:27;;;;;;;3.13;1.25;;;;;;;;;;8295103;28;20040;-59
2022/09/07 06:35:27;;;;;;;4.75;1.40;;;;;;;;;;8298902;28;20118;-58
2022/09/07 06:39:27;;;;;;;4.85;1.40;;;;;;;;;;8296071;28;20025;-58
2022/09/07 06:43:27;;;;;;;2.45;1.25;;;;;;;;;;8295969;28;20021;-58
2022/09/07 06:47:28;;;;;;;3.67;1.60;;;;;;;;;;8294370;28;20033;-58
2022/09/07 06:51:28;;;;;;;3.50;1.95;;;;;;;;;;8298137;28;20124;-58
2022/09/07 06:55:28;;;;;;;2.22;1.80;;;;;;;;;;8294477;28;20135;-58
2022/09/07 06:59:28;;;;;;;4.37;1.97;;;;;;;;;;8294633;28;20116;-58
2022/09/07 07:03:29;;;;;;;4.22;2.05;;;;;;;;;;8294962;28;20047;-59
2022/09/07 07:07:29;;;;;;;7.07;2.28;;;;;;;;;;8294642;28;20017;-59
2022/09/07 07:11:30;;;;;;;3.95;1.90;;;;;;;;;;8291207;28;20027;-58
2022/09/07 07:15:30;;;;;;;1.83;1.38;;;;;;;;;;8292487;28;20493;-59
2022/09/07 07:19:30;;;;;;;2.60;1.30;;;;;;;;;;8294155;28;20029;-58
2022/09/07 07:23:31;;;;;;;5.50;1.48;;;;;;;;;;8295786;28;20021;-58
2022/09/07 07:27:31;;;;;;;3.83;1.35;;;;;;;;;;8294763;28;20470;-59
2022/09/07 07:31:32;;;;;;;4.45;1.75;;;;;;;;;;8294311;28;20099;-59
2022/09/07 07:35:33;;;;;;;5.53;1.52;;;;;;;;;;8296875;28;20049;-59
2022/09/07 07:39:33;;;;;;;10.27;1.92;;;;;;;;;;8291610;28;20033;-59
2022/09/07 07:43:33;;;;;;;3.53;1.40;;;;;;;;;;8293982;28;20055;-58
2022/09/07 07:47:34;;;;;;;5.75;1.80;;;;;;;;;;8291197;28;20031;-58
2022/09/07 07:51:34;;;;;;;7.07;1.60;;;;;;;;;;8294178;28;20116;-59
2022/09/07 07:55:35;;;;;;;6.03;1.98;;;;;;;;;;8295634;28;20029;-59
2022/09/07 07:59:35;;;;;;;2.58;1.30;;;;;;;;;;8292563;28;20036;-59
2022/09/07 08:03:36;;;;;;;9.23;1.40;;;;;;;;;;8292669;28;20040;-59
2022/09/07 08:07:37;;;;;;;7.00;1.50;;;;;;;;;;8292284;28;20083;-59
2022/09/07 08:11:41;;;;;;;4.93;1.50;;;;;;;;;;8290229;28;20029;-60
2022/09/07 08:15:44;;;;;;;5.50;1.40;;;;;;;;;;8291012;28;20933;-59
2022/09/07 08:19:44;;;;;;;4.55;1.27;;;;;;;;;;8291933;28;20692;-59
2022/09/07 08:23:44;;;;;;;3.65;1.48;;;;;;;;;;8290221;28;20056;-59
2022/09/07 08:27:44;;;;;;;5.03;1.30;;;;;;;;;;8293445;28;20116;-59
2022/09/07 08:31:45;;;;;;;4.00;1.25;;;;;;;;;;8290516;28;20091;-59
2022/09/07 08:35:55;;;;;;;4.83;1.43;;;;;;;;;;8292398;28;20043;-59
2022/09/07 08:39:55;;;;;;;3.20;1.30;;;;;;;;;;8291799;28;20382;-60
2022/09/07 08:44:00;;;;;;;2.57;1.30;;;;;;;;;;8292676;28;20021;-59
2022/09/07 08:48:03;;;;;;;4.38;1.30;;;;;;;;;;8293636;28;20350;-59
2022/09/07 08:52:07;;;;;;;3.10;1.20;;;;;;;;;;8291348;28;20048;-60
2022/09/07 08:56:11;;;;;;;5.30;1.60;;;;;;;;;;8292985;28;20723;-59
2022/09/07 09:00:15;;;;;;;3.13;1.30;;;;;;;;;;8291616;28;20109;-59
2022/09/07 09:04:18;;;;;;;5.63;1.40;;;;;;;;;;8292335;28;20049;-59
2022/09/07 09:08:30;;;;;;;3.30;1.33;;;;;;;;;;8293328;28;20053;-59
2022/09/07 09:12:39;;;;;;;2.95;1.38;;;;;;;;;;8293799;28;20048;-59
2022/09/07 09:16:48;;;;;;;4.85;1.30;;;;;;;;;;8290047;28;20116;-59
2022/09/07 09:20:50;;;;;;;4.78;1.48;;;;;;;;;;8293822;28;20038;-58
2022/09/07 09:24:52;;;;;;;2.53;1.30;;;;;;;;;;8297186;28;20032;-58
2022/09/07 09:28:53;;;;;;;2.78;1.45;;;;;;;;;;8297511;28;20095;-58
2022/09/07 09:33:13;;;;;;;2.97;1.40;;;;;;;;;;8298905;28;20041;-58
2022/09/07 09:37:13;;;;;;;5.22;1.42;;;;;;;;;;8298658;28;20048;-58
2022/09/07 09:41:14;;;;;;;3.83;1.27;;;;;;;;;;8299850;28;20025;-58
2022/09/07 09:45:15;;;;;;;2.30;1.40;;;;;;;;;;8295340;28;20174;-58
2022/09/07 09:49:18;;;;;;;4.65;1.60;;;;;;;;;;8298474;28;20029;-58
2022/09/07 09:53:28;;;;;;;5.18;1.50;;;;;;;;;;8297792;28;20032;-57
2022/09/07 09:57:48;;;;;;;2.13;1.20;;;;;;;;;;8298160;28;20056;-58
2022/09/07 10:01:49;;;;;;;4.72;1.67;;;;;;;;;;8294044;28;20097;-58
2022/09/07 10:05:51;;;;;;;4.93;1.80;;;;;;;;;;8294594;28;20873;-60
2022/09/07 10:09:52;;;;;;;6.30;1.50;;;;;;;;;;8294573;28;20017;-58
2022/09/07 10:13:54;;;;;;;4.47;1.88;;;;;;;;;;8295581;28;21010;-58
2022/09/07 10:17:54;;;;;;;4.05;1.65;;;;;;;;;;8295812;28;20038;-58
2022/09/07 10:21:59;;;;;;;2.85;1.50;;;;;;;;;;8291990;28;20111;-58
2022/09/07 10:26:18;;;;;;;5.28;1.67;;;;;;;;;;8296158;28;20211;-58
2022/09/07 10:30:18;;;;;;;4.97;1.63;;;;;;;;;;8291019;28;20984;-58
2022/09/07 10:34:24;;;;;;;4.63;1.40;;;;;;;;;;8293141;28;20033;-58
2022/09/07 10:38:27;;;;;;;2.75;1.35;;;;;;;;;;8296316;28;20398;-59
2022/09/07 10:42:29;;;;;;;4.05;1.38;;;;;;;;;;8294997;28;20029;-59
2022/09/07 10:46:31;;;;;;;3.58;1.30;;;;;;;;;;8292827;28;20034;-60
2022/09/07 10:50:35;;;;;;;3.10;1.50;;;;;;;;;;8295346;28;20457;-59
2022/09/07 10:54:55;;;;;;;5.75;1.63;;;;;;;;;;8292666;28;20049;-60
2022/09/07 10:59:11;;;;;;;2.70;1.17;;;;;;;;;;8297946;28;20032;-60
2022/09/07 11:03:23;;;;;;;2.25;1.50;;;;;;;;;;8293075;28;20037;-59
2022/09/07 11:07:23;;;;;;;;;;;;;;;;;;8292289;28;20033;-59
2022/09/07 11:11:26;;;;;;;5.20;1.70;;;;;;;;;;8295916;28;19909;-59
2022/09/07 11:15:31;;;;;;;2.22;1.50;;;;;;;;;;8297502;28;20496;-59
2022/09/07 11:19:40;;;;;;;3.25;1.63;;;;;;;;;;8295473;28;20029;-59
2022/09/07 11:23:58;;;;;;;2.83;1.25;;;;;;;;;;8293712;28;20064;-59
2022/09/07 11:28:19;;;;;;;1.85;1.25;;;;;;;;;;8295960;28;20018;-58
2022/09/07 11:32:28;;;;;;;2.45;1.55;;;;;;;;;;8291409;28;20038;-58
2022/09/07 11:36:34;;;;;;;3.25;1.40;;;;;;;;;;8297796;28;20018;-58
2022/09/07 11:40:38;;;;;;;4.65;1.52;;;;;;;;;;8292090;28;20030;-58
2022/09/07 11:44:44;;;;;;;2.78;1.30;;;;;;;;;;8291409;28;20133;-57
2022/09/07 11:48:47;;;;;;;1.95;1.30;;;;;;;;;;8293575;28;21198;-57
2022/09/07 11:52:59;;;;;;;2.90;1.40;;;;;;;;;;8293597;28;20024;-57
2022/09/07 11:57:11;;;;;;;2.90;1.20;;;;;;;;;;8295410;28;20726;-57
2022/09/07 12:01:15;;;;;;;2.13;1.20;;;;;;;;;;8289523;28;21039;-57
2022/09/07 12:05:33;;;;;;;2.15;1.10;;;;;;;;;;8292346;28;20731;-58
2022/09/07 12:09:42;;;;;;;2.70;1.13;;;;;;;;;;8292054;28;20037;-57
2022/09/07 12:14:01;;;;;;;2.38;1.00;;;;;;;;;;8294770;28;20453;-58
2022/09/07 12:18:20;;;;;;;2.78;1.15;;;;;;;;;;8290344;28;20080;-57
2022/09/07 12:22:22;;;;;;;3.20;1.15;;;;;;;;;;8293044;28;20029;-57
2022/09/07 12:26:42;;;;;;;1.25;1.10;;;;;;;;;;8291816;28;20759;-57
2022/09/07 12:30:52;;;;;;;2.55;1.05;;;;;;;;;;8291992;28;20497;-57
2022/09/07 12:34:53;;;;;;;3.15;1.10;;;;;;;;;;8292702;28;20057;-57
2022/09/07 12:39:04;;;;;;;1.77;1.15;;;;;;;;;;8290619;28;20044;-57
2022/09/07 12:43:10;;;;;;;3.72;1.10;;;;;;;;;;8290742;28;20041;-57
2022/09/07 12:47:11;;;;;;;4.25;1.25;;;;;;;;;;8290183;28;20022;-57
2022/09/07 12:51:16;;;;;;;2.17;1.20;;;;;;;;;;8292799;28;20436;-57
2022/09/07 12:55:28;;;;;;;2.10;1.00;;;;;;;;;;8297449;28;20740;-57
2022/09/07 12:59:33;;;;;;;1.65;1.23;;;;;;;;;;8299061;28;20474;-58
2022/09/07 13:03:41;;;;;;;2.45;1.20;;;;;;;;;;8302177;28;20087;-57
2022/09/07 13:07:59;;;;;;;1.67;1.08;;;;;;;;;;8299734;28;20041;-57
2022/09/07 13:12:03;;;;;;;2.58;1.20;;;;;;;;;;8296000;28;20686;-57
2022/09/07 13:16:09;;;;;;;4.10;1.00;;;;;;;;;;8295915;28;20762;-57
2022/09/07 13:20:09;;;;;;;3.25;1.10;;;;;;;;;;8298158;28;20030;-57
2022/09/07 13:24:20;;;;;;;2.45;1.00;;;;;;;;;;8295482;28;20037;-57
2022/09/07 13:28:26;;;;;;;2.03;1.10;;;;;;;;;;8298873;28;20036;-57
2022/09/07 13:32:31;;;;;;;3.03;1.02;;;;;;;;;;8295168;28;20557;-57
2022/09/07 13:36:39;;;;;;;3.30;1.25;;;;;;;;;;8292377;28;20021;-56
2022/09/07 13:40:44;;;;;;;1.90;0.98;;;;;;;;;;8297207;28;20693;-57
2022/09/07 13:44:50;;;;;;;1.05;0.88;;;;;;;;;;8298520;28;20117;-57
2022/09/07 13:48:58;;;;;;;5.40;1.20;;;;;;;;;;8293800;28;20030;-56
2022/09/07 13:52:58;;;;;;;5.03;0.80;;;;;;;;;;8296775;28;20075;-57
2022/09/07 13:57:18;;;;;;;0.82;0.77;;;;;;;;;;8292269;28;20068;-56
2022/09/07 14:01:27;;;;;;;5.15;0.98;;;;;;;;;;8292537;28;20064;-57
2022/09/07 14:05:27;;;;;;;2.45;1.00;;;;;;;;;;8295733;28;20021;-56
2022/09/07 14:09:28;;;;;;;3.20;1.00;;;;;;;;;;8290045;28;20029;-56
2022/09/07 14:13:28;;;;;;;1.67;0.93;;;;;;;;;;8294126;28;20025;-56
2022/09/07 14:17:30;;;;;;;1.55;0.88;;;;;;;;;;8291488;28;20767;-57
2022/09/07 14:21:30;;;;;;;0.80;0.80;;;;;;;;;;8292634;28;20021;-57
2022/09/07 14:25:30;;;;;;;2.00;0.97;;;;;;;;;;8289244;28;20067;-59
2022/09/07 14:29:32;;;;;;;2.85;1.10;;;;;;;;;;8287813;28;20016;-59
2022/09/07 14:33:32;;;;;;;3.58;0.93;;;;;;;;;;8317963;28;20721;-59
2022/09/07 14:37:33;;;;;;;1.60;1.00;;;;;;;;;;8323497;28;20555;-57
2022/09/07 14:41:37;;;;;;;3.72;1.08;;;;;;;;;;8324168;28;20228;-57
2022/09/07 14:45:37;;;;;;;1.38;0.93;;;;;;;;;;8322035;28;20060;-56
2022/09/07 14:49:37;;;;;;;2.53;1.10;;;;;;;;;;8325504;28;20484;-57
2022/09/07 14:53:38;;;;;;;2.17;1.00;;;;;;;;;;8325356;28;20027;-57
2022/09/07 14:57:38;;;;;;;2.50;1.02;;;;;;;;;;8324946;28;20412;-57
2022/09/07 15:01:38;;;;;;;2.08;1.10;;;;;;;;;;8310944;28;20041;-57
2022/09/07 15:05:47;;;;;;;3.03;1.10;;;;;;;;;;8295530;28;20798;-57
2022/09/07 15:09:47;;;;;;;1.88;1.27;;;;;;;;;;8294061;28;20056;-57
2022/09/07 15:13:53;;;;;;;2.33;1.10;;;;;;;;;;8296179;28;20033;-57
2022/09/07 15:17:54;;;;;;;2.00;1.17;;;;;;;;;;8294133;28;20057;-57
2022/09/07 15:21:55;;;;;;;1.38;1.05;;;;;;;;;;8293678;28;20020;-57
2022/09/07 15:25:55;;;;;;;2.20;1.20;;;;;;;;;;8298125;28;20480;-57
2022/09/07 15:29:55;;;;;;;3.15;1.20;;;;;;;;;;8294256;28;20025;-58
2022/09/07 15:33:56;;;;;;;1.95;1.30;;;;;;;;;;8295116;28;20037;-57
2022/09/07 15:37:56;;;;;;;4.07;1.23;;;;;;;;;;8296635;28;20036;-57
2022/09/07 15:41:57;;;;;;;1.27;1.10;;;;;;;;;;8292564;28;20044;-57
2022/09/07 15:45:58;;;;;;;1.77;1.20;;;;;;;;;;8293540;28;20033;-57
2022/09/07 15:49:58;;;;;;;1.67;1.20;;;;;;;;;;8295573;28;20032;-57
2022/09/07 15:54:00;;;;;;;1.38;1.10;;;;;;;;;;8295623;28;20021;-59
2022/09/07 15:58:00;;;;;;;2.23;1.27;;;;;;;;;;8296792;28;20061;-57
2022/09/07 16:02:01;;;;;;;2.55;1.10;;;;;;;;;;8291790;28;20041;-57
2022/09/07 16:06:05;;;;;;;3.30;1.17;;;;;;;;;;8291696;28;20056;-57
2022/09/07 16:10:06;;;;;;;1.55;1.10;;;;;;;;;;8292828;28;20145;-57
2022/09/07 16:14:10;;;;;;;3.80;1.23;;;;;;;;;;8295108;28;20014;-57
2022/09/07 16:18:11;;;;;;;2.53;1.20;;;;;;;;;;8290687;28;20044;-57
2022/09/07 16:22:11;;;;;;;3.28;1.25;;;;;;;;;;8294000;28;20678;-56
2022/09/07 16:26:12;;;;;;;1.77;1.13;;;;;;;;;;8293822;28;20120;-57
2022/09/07 16:30:12;;;;;;;2.53;1.08;;;;;;;;;;8287990;28;20033;-57
2022/09/07 16:34:17;;;;;;;1.53;1.03;;;;;;;;;;8295449;28;20021;-57
2022/09/07 16:38:17;;;;;;;3.53;1.20;;;;;;;;;;8294260;28;20025;-57
2022/09/07 16:42:17;;;;;;;3.20;1.10;;;;;;;;;;8295031;28;20114;-57
2022/09/07 16:46:19;;;;;;;2.23;1.10;;;;;;;;;;8293378;28;20033;-57
2022/09/07 16:50:19;;;;;;;1.98;1.13;;;;;;;;;;8292667;28;20799;-57
2022/09/07 16:54:19;;;;;;;4.20;1.30;;;;;;;;;;8289733;28;20052;-57
2022/09/07 16:58:19;;;;;;;5.40;1.02;;;;;;;;;;8292404;28;20045;-56
2022/09/07 17:02:20;;;;;;;1.70;1.20;;;;;;;;;;8292479;28;20164;-57
2022/09/07 17:06:21;;;;;;;2.40;1.10;;;;;;;;;;8291925;28;20025;-57
2022/09/07 17:10:21;;;;;;;4.10;1.40;;;;;;;;;;8287485;28;20021;-57
2022/09/07 17:14:21;;;;;;;2.80;1.20;;;;;;;;;;8290893;28;20025;-57
2022/09/07 17:18:22;;;;;;;2.13;1.20;;;;;;;;;;8287845;28;20693;-57
2022/09/07 17:22:22;;;;;;;1.73;1.08;;;;;;;;;;8289337;28;20037;-57
2022/09/07 17:26:23;;;;;;;1.88;1.00;;;;;;;;;;8292057;28;20024;-57
2022/09/07 17:30:23;;;;;;;2.05;1.00;;;;;;;;;;8287410;28;20046;-57
2022/09/07 17:34:24;;;;;;;1.60;1.23;;;;;;;;;;8287740;28;20029;-59
2022/09/07 17:38:24;;;;;;;2.35;1.20;;;;;;;;;;8287139;28;20021;-57
2022/09/07 17:42:27;;;;;;;2.15;1.35;;;;;;;;;;8292763;28;20025;-57
2022/09/07 17:46:30;;;;;;;3.33;1.08;;;;;;;;;;8293957;28;20040;-57
2022/09/07 17:50:30;;;;;;;1.23;1.02;;;;;;;;;;8286051;28;20045;-57
2022/09/07 17:54:31;;;;;;;1.95;1.13;;;;;;;;;;8291392;28;20478;-57
2022/09/07 17:58:40;;;;;;;3.03;1.50;;;;;;;;;;8291563;28;20032;-56
2022/09/07 18:02:40;;;;;;;1.98;1.50;;;;;;;;;;8290603;28;20042;-57
2022/09/07 18:06:41;;;;;;;2.23;1.40;;;;;;;;;;8291217;28;20020;-57
2022/09/07 18:10:41;;;;;;;1.93;1.50;;;;;;;;;;8292449;28;20078;-57
2022/09/07 18:14:42;;;;;;;1.97;1.60;;;;;;;;;;8293448;28;20017;-57
2022/09/07 18:18:42;;;;;;;3.67;1.60;;;;;;;;;;8291048;28;20040;-57
2022/09/07 18:22:43;;;;;;;3.10;1.30;;;;;;;;;;8288204;28;20025;-57
2022/09/07 18:26:44;;;;;;;2.73;1.33;;;;;;;;;;8293772;28;20026;-57
2022/09/07 18:30:44;;;;;;;2.17;1.10;;;;;;;;;;8287163;28;20108;-57
2022/09/07 18:34:44;;;;;;;3.17;1.05;;;;;;;;;;8293881;28;20060;-56
2022/09/07 18:38:45;;;;;;;1.70;1.00;;;;;;;;;;8290926;28;20076;-57
2022/09/07 18:42:45;;;;;;;2.17;0.90;;;;;;;;;;8291153;28;20470;-57
2022/09/07 18:46:45;;;;;;;1.10;1.00;;;;;;;;;;8291287;28;20283;-59
2022/09/07 18:50:51;;;;;;;1.13;0.93;;;;;;;;;;8290523;28;20545;-56
2022/09/07 18:54:51;;;;;;;2.78;1.05;;;;;;;;;;8289758;28;20037;-57
2022/09/07 18:58:55;;;;;;;1.50;1.30;;;;;;;;;;8290768;28;20022;-57
2022/09/07 19:02:55;;;;;;;3.83;1.00;;;;;;;;;;8285779;28;20055;-57
2022/09/07 19:06:56;;;;;;;3.55;1.10;;;;;;;;;;8293641;28;20060;-57
2022/09/07 19:11:01;;;;;;;1.50;1.10;;;;;;;;;;8278812;28;20021;-56
2022/09/07 19:15:02;;;;;;;4.32;1.05;;;;;;;;;;8292473;28;20033;-56
2022/09/07 19:19:04;;;;;;;1.25;1.00;;;;;;;;;;8322673;28;20102;-57
2022/09/07 19:23:04;;;;;;;1.60;1.10;;;;;;;;;;8320603;28;20029;-57
2022/09/07 19:27:06;;;;;;;3.03;1.15;;;;;;;;;;8324818;28;20019;-57
2022/09/07 19:31:06;;;;;;;2.00;1.10;;;;;;;;;;8322825;28;20366;-56
2022/09/07 19:35:06;;;;;;;1.48;1.00;;;;;;;;;;8324200;28;20028;-59
2022/09/07 19:39:07;;;;;;;1.00;0.90;;;;;;;;;;8318207;28;20020;-57
2022/09/07 19:43:07;;;;;;;2.70;0.90;;;;;;;;;;8325508;28;20799;-57
2022/09/07 19:47:08;;;;;;;1.10;1.00;;;;;;;;;;8306117;28;20060;-57
2022/09/07 19:51:09;;;;;;;1.10;0.80;;;;;;;;;;8288754;28;20565;-57
2022/09/07 19:55:10;;;;;;;1.27;0.90;;;;;;;;;;8293951;28;20025;-57
2022/09/07 19:59:10;;;;;;;4.22;1.45;;;;;;;;;;8293894;28;20090;-58
2022/09/07 20:03:10;;;;;;;1.80;1.10;;;;;;;;;;8290684;28;20038;-57
2022/09/07 20:07:10;;;;;;;5.53;1.53;;;;;;;;;;8292539;28;20032;-56
2022/09/07 20:11:12;;;;;;;2.33;1.20;;;;;;;;;;8292465;28;20018;-56
2022/09/07 20:15:12;;;;;;;0.90;0.90;;;;;;;;;;8291545;28;20152;-57
2022/09/07 20:19:16;;;;;;;1.27;1.17;;;;;;;;;;8292510;28;20030;-57
2022/09/07 20:23:16;;;;;;;2.65;1.10;;;;;;;;;;8289812;28;20040;-57
2022/09/07 20:27:17;;;;;;;5.82;1.50;;;;;;;;;;8292895;28;20168;-56
2022/09/07 20:31:17;;;;;;;2.53;1.67;;;;;;;;;;8291682;28;20041;-57
2022/09/07 20:35:17;;;;;;;1.45;1.17;;;;;;;;;;8291196;28;20030;-56
2022/09/07 20:39:18;;;;;;;3.55;1.20;;;;;;;;;;8289150;28;20021;-56
2022/09/07 20:43:19;;;;;;;3.10;1.20;;;;;;;;;;8290985;28;20549;-56
2022/09/07 20:47:20;;;;;;;1.83;1.30;;;;;;;;;;8291233;28;20033;-56
2022/09/07 20:51:20;;;;;;;3.28;1.20;;;;;;;;;;8289643;28;20025;-56
2022/09/07 20:55:20;;;;;;;1.40;1.13;;;;;;;;;;8293309;28;20025;-56
2022/09/07 20:59:20;;;;;;;2.47;1.20;;;;;;;;;;8292757;28;20034;-56
2022/09/07 21:03:21;;;;;;;2.83;1.40;;;;;;;;;;8289217;28;20068;-59
2022/09/07 21:07:21;;;;;;;1.30;1.20;;;;;;;;;;8289944;28;20445;-63
2022/09/07 21:11:23;;;;;;;1.92;1.10;;;;;;;;;;8290058;28;20052;-56
2022/09/07 21:15:23;;;;;;;2.40;1.30;;;;;;;;;;8297783;28;20075;-56
2022/09/07 21:19:23;;;;;;;2.03;0.95;;;;;;;;;;8298889;28;20021;-56
2022/09/07 21:23:23;;;;;;;3.35;1.20;;;;;;;;;;8296146;28;20715;-57
2022/09/07 21:27:24;;;;;;;3.30;1.27;;;;;;;;;;8297347;28;20025;-57
2022/09/07 21:31:24;;;;;;;1.20;1.10;;;;;;;;;;8295883;28;20083;-56
2022/09/07 21:35:25;;;;;;;2.53;1.10;;;;;;;;;;8301739;28;20262;-56
2022/09/07 21:39:26;;;;;;;1.58;1.00;;;;;;;;;;8297969;28;20018;-56
2022/09/07 21:43:26;;;;;;;1.30;1.00;;;;;;;;;;8294868;28;20028;-57
2022/09/07 21:47:26;;;;;;;2.00;1.03;;;;;;;;;;8297070;28;20059;-57
2022/09/07 21:51:27;;;;;;;1.20;0.80;;;;;;;;;;8295988;28;20124;-57
2022/09/07 21:55:27;;;;;;;2.42;0.93;;;;;;;;;;8297805;28;20854;-56
2022/09/07 21:59:27;;;;;;;2.25;1.10;;;;;;;;;;8296443;28;20768;-57
2022/09/07 22:03:27;;;;;;;0.90;0.90;;;;;;;;;;8294324;28;20124;-57
2022/09/07 22:07:28;;;;;;;1.00;0.90;;;;;;;;;;8299226;28;20025;-56
2022/09/07 22:11:28;;;;;;;1.05;0.95;;;;;;;;;;8297532;28;20116;-56
2022/09/07 22:15:32;;;;;;;0.90;0.90;;;;;;;;;;8296460;28;21132;-56
2022/09/07 22:19:32;;;;;;;1.77;1.00;;;;;;;;;;8295949;28;20055;-57
2022/09/07 22:23:34;;;;;;;1.30;0.90;;;;;;;;;;8293995;28;20140;-57
2022/09/07 22:27:35;;;;;;;2.10;1.10;;;;;;;;;;8295945;28;20318;-57
2022/09/07 22:31:36;;;;;;;1.40;1.20;;;;;;;;;;8293518;28;20112;-57
2022/09/07 22:35:36;;;;;;;3.55;0.90;;;;;;;;;;8292829;28;20120;-56
2022/09/07 22:39:36;;;;;;;1.07;0.97;;;;;;;;;;8293543;28;20111;-57
2022/09/07 22:43:38;;;;;;;2.13;0.85;;;;;;;;;;8292827;28;20020;-57
2022/09/07 22:47:38;;;;;;;1.88;1.10;;;;;;;;;;8295003;28;20033;-57
2022/09/07 22:51:38;;;;;;;1.52;0.90;;;;;;;;;;8291364;28;20018;-57
2022/09/07 22:55:38;;;;;;;0.90;0.90;;;;;;;;;;8295659;28;20589;-56
2022/09/07 22:59:39;;;;;;;1.13;0.77;;;;;;;;;;8297265;28;20024;-56
2022/09/07 23:03:39;;;;;;;1.95;0.90;;;;;;;;;;8290056;28;20486;-57
2022/09/07 23:07:39;;;;;;;3.00;0.88;;;;;;;;;;8294966;28;20503;-56
2022/09/07 23:11:40;;;;;;;0.98;0.70;;;;;;;;;;8294597;28;20049;-56
2022/09/07 23:15:41;;;;;;;1.63;0.88;;;;;;;;;;8291332;28;20065;-57
2022/09/07 23:19:41;;;;;;;1.23;0.80;;;;;;;;;;8293864;28;20039;-56
2022/09/07 23:23:41;;;;;;;0.85;0.70;;;;;;;;;;8292791;28;20220;-57
2022/09/07 23:27:41;;;;;;;0.80;0.70;;;;;;;;;;8298512;28;20129;-56
2022/09/07 23:31:43;;;;;;;1.15;0.60;;;;;;;;;;8293160;28;20037;-57
2022/09/07 23:35:53;;;;;;;0.70;0.70;;;;;;;;;;8295707;28;20022;-57
2022/09/07 23:39:54;;;;;;;1.25;0.60;;;;;;;;;;8291985;28;20026;-56
2022/09/07 23:43:54;;;;;;;0.77;0.70;;;;;;;;;;8294486;28;20064;-57
2022/09/07 23:47:54;;;;;;;0.80;0.80;;;;;;;;;;8294769;28;20280;-57
2022/09/07 23:51:54;;;;;;;1.30;0.60;;;;;;;;;;8292274;28;20566;-57
2022/09/07 23:55:55;;;;;;;1.60;0.70;;;;;;;;;;8294427;28;20037;-57
2022/09/07 23:59:55;;;;;;;2.27;0.90;;;;;;;;;;8292775;28;20090;-57
